sensor_id;sensor_type;location;lat;lon;timestamp;P1;durP1;ratioP1;P2;durP2;ratioP2
74042;SDS011;62384;53.600;10.040;2023-09-19T00:00:11;5.22;;;0.77;;
74042;SDS011;62384;53.600;10.040;2023-09-19T00:02:45;5.15;;;1.35;;
74042;SDS011;62384;53.600;10.040;2023-09-19T00:05:12;2.25;;;0.85;;
74042;SDS011;62384;53.600;10.040;2023-09-19T00:07:42;1.95;;;0.75;;
74042;SDS011;62384;53.600;10.040;2023-09-19T00:10:07;2.70;;;1.10;;
74042;SDS011;62384;53.600;10.040;2023-09-19T00:12:34;1.88;;;0.85;;
74042;SDS011;62384;53.600;10.040;2023-09-19T00:15:00;6.70;;;1.25;;
74042;SDS011;62384;53.600;10.040;2023-09-19T00:17:26;3.13;;;1.02;;
74042;SDS011;62384;53.600;10.040;2023-09-19T00:19:52;2.88;;;1.20;;
74042;SDS011;62384;53.600;10.040;2023-09-19T00:22:18;4.03;;;0.90;;
74042;SDS011;62384;53.600;10.040;2023-09-19T00:27:35;1.60;;;0.98;;
74042;SDS011;62384;53.600;10.040;2023-09-19T00:30:00;3.05;;;1.30;;
74042;SDS011;62384;53.600;10.040;2023-09-19T00:32:27;4.00;;;1.30;;
74042;SDS011;62384;53.600;10.040;2023-09-19T00:34:57;4.87;;;1.30;;
74042;SDS011;62384;53.600;10.040;2023-09-19T00:37:22;3.72;;;1.38;;
74042;SDS011;62384;53.600;10.040;2023-09-19T00:39:47;6.18;;;1.20;;
74042;SDS011;62384;53.600;10.040;2023-09-19T00:42:22;3.90;;;1.60;;
74042;SDS011;62384;53.600;10.040;2023-09-19T00:44:50;3.45;;;1.52;;
74042;SDS011;62384;53.600;10.040;2023-09-19T00:47:18;4.57;;;1.20;;
74042;SDS011;62384;53.600;10.040;2023-09-19T00:49:46;3.80;;;1.77;;
74042;SDS011;62384;53.600;10.040;2023-09-19T00:52:18;3.08;;;1.35;;
74042;SDS011;62384;53.600;10.040;2023-09-19T00:54:47;6.00;;;1.48;;
74042;SDS011;62384;53.600;10.040;2023-09-19T00:57:12;3.47;;;1.48;;
74042;SDS011;62384;53.600;10.040;2023-09-19T00:59:49;4.75;;;1.83;;
74042;SDS011;62384;53.600;10.040;2023-09-19T01:02:28;2.58;;;1.23;;
74042;SDS011;62384;53.600;10.040;2023-09-19T01:04:57;4.15;;;1.50;;
74042;SDS011;62384;53.600;10.040;2023-09-19T01:07:22;3.85;;;1.60;;
74042;SDS011;62384;53.600;10.040;2023-09-19T01:09:48;6.88;;;1.70;;
74042;SDS011;62384;53.600;10.040;2023-09-19T01:12:22;4.30;;;1.90;;
74042;SDS011;62384;53.600;10.040;2023-09-19T01:14:59;3.08;;;1.30;;
74042;SDS011;62384;53.600;10.040;2023-09-19T01:17:35;5.32;;;1.80;;
74042;SDS011;62384;53.600;10.040;2023-09-19T01:20:18;7.97;;;1.88;;
74042;SDS011;62384;53.600;10.040;2023-09-19T01:26:07;4.18;;;1.73;;
74042;SDS011;62384;53.600;10.040;2023-09-19T01:28:54;3.83;;;1.80;;
74042;SDS011;62384;53.600;10.040;2023-09-19T01:31:47;4.47;;;1.60;;
74042;SDS011;62384;53.600;10.040;2023-09-19T01:34:14;3.22;;;1.58;;
74042;SDS011;62384;53.600;10.040;2023-09-19T01:36:39;5.45;;;2.67;;
74042;SDS011;62384;53.600;10.040;2023-09-19T01:39:05;6.45;;;2.47;;
74042;SDS011;62384;53.600;10.040;2023-09-19T01:42:01;3.47;;;1.60;;
74042;SDS011;62384;53.600;10.040;2023-09-19T01:47:50;1.90;;;1.27;;
74042;SDS011;62384;53.600;10.040;2023-09-19T01:50:29;4.13;;;1.58;;
74042;SDS011;62384;53.600;10.040;2023-09-19T01:53:02;2.20;;;1.30;;
74042;SDS011;62384;53.600;10.040;2023-09-19T01:55:37;4.57;;;2.15;;
74042;SDS011;62384;53.600;10.040;2023-09-19T01:58:12;4.30;;;1.95;;
74042;SDS011;62384;53.600;10.040;2023-09-19T02:00:42;2.70;;;1.40;;
74042;SDS011;62384;53.600;10.040;2023-09-19T02:03:10;4.78;;;1.20;;
74042;SDS011;62384;53.600;10.040;2023-09-19T02:05:39;8.32;;;1.33;;
74042;SDS011;62384;53.600;10.040;2023-09-19T02:08:05;4.20;;;1.27;;
74042;SDS011;62384;53.600;10.040;2023-09-19T02:10:30;6.95;;;1.42;;
74042;SDS011;62384;53.600;10.040;2023-09-19T02:12:55;5.78;;;1.50;;
74042;SDS011;62384;53.600;10.040;2023-09-19T02:15:24;4.00;;;1.50;;
74042;SDS011;62384;53.600;10.040;2023-09-19T02:17:50;2.65;;;1.50;;
74042;SDS011;62384;53.600;10.040;2023-09-19T02:20:15;4.68;;;1.52;;
74042;SDS011;62384;53.600;10.040;2023-09-19T02:22:42;2.58;;;1.50;;
74042;SDS011;62384;53.600;10.040;2023-09-19T02:25:07;6.80;;;2.05;;
74042;SDS011;62384;53.600;10.040;2023-09-19T02:27:38;5.05;;;2.05;;
74042;SDS011;62384;53.600;10.040;2023-09-19T02:30:04;7.78;;;3.15;;
74042;SDS011;62384;53.600;10.040;2023-09-19T02:32:33;6.13;;;2.42;;
74042;SDS011;62384;53.600;10.040;2023-09-19T02:35:01;5.20;;;2.30;;
74042;SDS011;62384;53.600;10.040;2023-09-19T02:37:27;4.10;;;2.65;;
74042;SDS011;62384;53.600;10.040;2023-09-19T02:39:52;4.30;;;2.55;;
74042;SDS011;62384;53.600;10.040;2023-09-19T02:42:21;7.00;;;2.40;;
74042;SDS011;62384;53.600;10.040;2023-09-19T02:44:49;4.18;;;2.67;;
74042;SDS011;62384;53.600;10.040;2023-09-19T02:47:14;8.43;;;2.45;;
74042;SDS011;62384;53.600;10.040;2023-09-19T02:49:41;5.05;;;2.95;;
74042;SDS011;62384;53.600;10.040;2023-09-19T02:52:07;7.53;;;2.63;;
74042;SDS011;62384;53.600;10.040;2023-09-19T02:54:32;4.35;;;2.20;;
74042;SDS011;62384;53.600;10.040;2023-09-19T02:56:58;5.18;;;1.80;;
74042;SDS011;62384;53.600;10.040;2023-09-19T02:59:26;7.43;;;2.30;;
74042;SDS011;62384;53.600;10.040;2023-09-19T03:01:51;3.22;;;1.95;;
74042;SDS011;62384;53.600;10.040;2023-09-19T03:04:22;8.95;;;1.95;;
74042;SDS011;62384;53.600;10.040;2023-09-19T03:06:53;5.30;;;1.80;;
74042;SDS011;62384;53.600;10.040;2023-09-19T03:09:23;5.97;;;1.77;;
74042;SDS011;62384;53.600;10.040;2023-09-19T03:11:49;4.88;;;1.73;;
74042;SDS011;62384;53.600;10.040;2023-09-19T03:14:16;9.07;;;1.85;;
74042;SDS011;62384;53.600;10.040;2023-09-19T03:16:44;5.93;;;1.75;;
74042;SDS011;62384;53.600;10.040;2023-09-19T03:19:10;2.53;;;1.58;;
74042;SDS011;62384;53.600;10.040;2023-09-19T03:21:37;4.25;;;1.75;;
74042;SDS011;62384;53.600;10.040;2023-09-19T03:24:03;7.40;;;2.28;;
74042;SDS011;62384;53.600;10.040;2023-09-19T03:26:29;4.30;;;1.25;;
74042;SDS011;62384;53.600;10.040;2023-09-19T03:28:54;4.47;;;1.40;;
74042;SDS011;62384;53.600;10.040;2023-09-19T03:31:20;7.65;;;2.08;;
74042;SDS011;62384;53.600;10.040;2023-09-19T03:33:45;6.63;;;1.63;;
74042;SDS011;62384;53.600;10.040;2023-09-19T03:36:10;2.40;;;1.42;;
74042;SDS011;62384;53.600;10.040;2023-09-19T03:38:38;2.97;;;1.10;;
74042;SDS011;62384;53.600;10.040;2023-09-19T03:41:03;3.28;;;1.33;;
74042;SDS011;62384;53.600;10.040;2023-09-19T03:43:32;5.20;;;1.50;;
74042;SDS011;62384;53.600;10.040;2023-09-19T03:46:01;2.97;;;1.75;;
74042;SDS011;62384;53.600;10.040;2023-09-19T03:48:30;9.55;;;1.83;;
74042;SDS011;62384;53.600;10.040;2023-09-19T03:51:01;4.95;;;1.83;;
74042;SDS011;62384;53.600;10.040;2023-09-19T03:53:27;5.40;;;1.80;;
74042;SDS011;62384;53.600;10.040;2023-09-19T03:55:52;5.60;;;1.40;;
74042;SDS011;62384;53.600;10.040;2023-09-19T03:58:17;5.18;;;1.45;;
74042;SDS011;62384;53.600;10.040;2023-09-19T04:00:43;5.07;;;1.38;;
74042;SDS011;62384;53.600;10.040;2023-09-19T04:03:14;4.38;;;1.20;;
74042;SDS011;62384;53.600;10.040;2023-09-19T04:05:47;9.15;;;1.17;;
74042;SDS011;62384;53.600;10.040;2023-09-19T04:08:17;2.13;;;1.33;;
74042;SDS011;62384;53.600;10.040;2023-09-19T04:10:45;3.88;;;1.00;;
74042;SDS011;62384;53.600;10.040;2023-09-19T04:13:13;3.70;;;1.13;;
74042;SDS011;62384;53.600;10.040;2023-09-19T04:15:38;6.22;;;1.40;;
74042;SDS011;62384;53.600;10.040;2023-09-19T04:18:07;5.63;;;1.00;;
74042;SDS011;62384;53.600;10.040;2023-09-19T04:20:32;7.30;;;1.20;;
74042;SDS011;62384;53.600;10.040;2023-09-19T04:22:57;4.20;;;0.90;;
74042;SDS011;62384;53.600;10.040;2023-09-19T04:25:25;4.47;;;0.77;;
74042;SDS011;62384;53.600;10.040;2023-09-19T04:27:51;3.97;;;1.10;;
74042;SDS011;62384;53.600;10.040;2023-09-19T04:30:17;6.88;;;0.80;;
74042;SDS011;62384;53.600;10.040;2023-09-19T04:32:42;7.35;;;1.27;;
74042;SDS011;62384;53.600;10.040;2023-09-19T04:35:15;4.15;;;1.17;;
74042;SDS011;62384;53.600;10.040;2023-09-19T04:37:40;5.68;;;0.90;;
74042;SDS011;62384;53.600;10.040;2023-09-19T04:40:09;4.80;;;1.15;;
74042;SDS011;62384;53.600;10.040;2023-09-19T04:42:40;2.17;;;0.90;;
74042;SDS011;62384;53.600;10.040;2023-09-19T04:45:05;4.60;;;0.90;;
74042;SDS011;62384;53.600;10.040;2023-09-19T04:47:32;4.47;;;0.98;;
74042;SDS011;62384;53.600;10.040;2023-09-19T04:50:00;3.13;;;0.93;;
74042;SDS011;62384;53.600;10.040;2023-09-19T04:52:30;4.15;;;0.77;;
74042;SDS011;62384;53.600;10.040;2023-09-19T04:54:56;7.35;;;1.23;;
74042;SDS011;62384;53.600;10.040;2023-09-19T04:57:21;7.45;;;1.05;;
74042;SDS011;62384;53.600;10.040;2023-09-19T04:59:47;4.07;;;0.95;;
74042;SDS011;62384;53.600;10.040;2023-09-19T05:02:12;4.70;;;0.80;;
74042;SDS011;62384;53.600;10.040;2023-09-19T05:04:38;4.88;;;0.77;;
74042;SDS011;62384;53.600;10.040;2023-09-19T05:07:03;4.15;;;1.00;;
74042;SDS011;62384;53.600;10.040;2023-09-19T05:09:29;3.22;;;0.90;;
74042;SDS011;62384;53.600;10.040;2023-09-19T05:12:11;3.60;;;0.88;;
74042;SDS011;62384;53.600;10.040;2023-09-19T05:14:42;4.43;;;0.95;;
74042;SDS011;62384;53.600;10.040;2023-09-19T05:17:08;1.67;;;0.82;;
74042;SDS011;62384;53.600;10.040;2023-09-19T05:19:33;8.20;;;1.20;;
74042;SDS011;62384;53.600;10.040;2023-09-19T05:22:00;3.92;;;0.68;;
74042;SDS011;62384;53.600;10.040;2023-09-19T05:24:28;8.05;;;1.17;;
74042;SDS011;62384;53.600;10.040;2023-09-19T05:26:57;5.07;;;1.00;;
74042;SDS011;62384;53.600;10.040;2023-09-19T05:29:22;6.75;;;0.98;;
74042;SDS011;62384;53.600;10.040;2023-09-19T05:31:48;2.30;;;0.75;;
74042;SDS011;62384;53.600;10.040;2023-09-19T05:34:14;3.15;;;0.82;;
74042;SDS011;62384;53.600;10.040;2023-09-19T05:36:40;4.15;;;0.70;;
74042;SDS011;62384;53.600;10.040;2023-09-19T05:39:08;6.80;;;0.98;;
74042;SDS011;62384;53.600;10.040;2023-09-19T05:41:34;2.72;;;1.20;;
74042;SDS011;62384;53.600;10.040;2023-09-19T05:44:08;6.18;;;1.58;;
74042;SDS011;62384;53.600;10.040;2023-09-19T05:46:33;4.38;;;1.10;;
74042;SDS011;62384;53.600;10.040;2023-09-19T05:48:58;7.57;;;1.13;;
74042;SDS011;62384;53.600;10.040;2023-09-19T05:51:26;5.20;;;0.85;;
74042;SDS011;62384;53.600;10.040;2023-09-19T05:53:53;5.05;;;1.10;;
74042;SDS011;62384;53.600;10.040;2023-09-19T05:56:25;3.78;;;1.10;;
74042;SDS011;62384;53.600;10.040;2023-09-19T05:58:53;11.05;;;1.83;;
74042;SDS011;62384;53.600;10.040;2023-09-19T06:01:21;5.82;;;1.67;;
74042;SDS011;62384;53.600;10.040;2023-09-19T06:03:49;4.55;;;0.90;;
74042;SDS011;62384;53.600;10.040;2023-09-19T06:06:15;4.30;;;1.27;;
74042;SDS011;62384;53.600;10.040;2023-09-19T06:08:41;5.60;;;1.02;;
74042;SDS011;62384;53.600;10.040;2023-09-19T06:11:10;6.65;;;1.38;;
74042;SDS011;62384;53.600;10.040;2023-09-19T06:13:35;4.97;;;1.27;;
74042;SDS011;62384;53.600;10.040;2023-09-19T06:16:01;5.55;;;1.00;;
74042;SDS011;62384;53.600;10.040;2023-09-19T06:18:31;3.00;;;1.23;;
74042;SDS011;62384;53.600;10.040;2023-09-19T06:20:59;5.40;;;1.00;;
74042;SDS011;62384;53.600;10.040;2023-09-19T06:23:25;4.63;;;0.98;;
74042;SDS011;62384;53.600;10.040;2023-09-19T06:25:54;3.42;;;1.17;;
74042;SDS011;62384;53.600;10.040;2023-09-19T06:28:19;3.53;;;0.90;;
74042;SDS011;62384;53.600;10.040;2023-09-19T06:30:49;5.72;;;1.10;;
74042;SDS011;62384;53.600;10.040;2023-09-19T06:33:14;6.90;;;1.20;;
74042;SDS011;62384;53.600;10.040;2023-09-19T06:35:42;2.65;;;1.20;;
74042;SDS011;62384;53.600;10.040;2023-09-19T06:38:09;6.05;;;1.17;;
74042;SDS011;62384;53.600;10.040;2023-09-19T06:40:38;7.00;;;1.15;;
74042;SDS011;62384;53.600;10.040;2023-09-19T06:43:03;4.57;;;1.15;;
74042;SDS011;62384;53.600;10.040;2023-09-19T06:45:30;5.22;;;1.50;;
74042;SDS011;62384;53.600;10.040;2023-09-19T06:48:00;3.83;;;1.00;;
74042;SDS011;62384;53.600;10.040;2023-09-19T06:50:27;13.43;;;1.08;;
74042;SDS011;62384;53.600;10.040;2023-09-19T06:52:53;2.70;;;0.80;;
74042;SDS011;62384;53.600;10.040;2023-09-19T06:55:26;5.60;;;1.13;;
74042;SDS011;62384;53.600;10.040;2023-09-19T06:58:01;5.00;;;1.10;;
74042;SDS011;62384;53.600;10.040;2023-09-19T07:00:26;6.40;;;1.05;;
74042;SDS011;62384;53.600;10.040;2023-09-19T07:02:57;5.38;;;1.10;;
74042;SDS011;62384;53.600;10.040;2023-09-19T07:05:33;5.85;;;1.00;;
74042;SDS011;62384;53.600;10.040;2023-09-19T07:08:06;6.30;;;1.63;;
74042;SDS011;62384;53.600;10.040;2023-09-19T07:10:33;10.20;;;1.50;;
74042;SDS011;62384;53.600;10.040;2023-09-19T07:12:59;5.80;;;1.38;;
74042;SDS011;62384;53.600;10.040;2023-09-19T07:15:26;9.32;;;1.38;;
74042;SDS011;62384;53.600;10.040;2023-09-19T07:18:01;7.57;;;1.27;;
74042;SDS011;62384;53.600;10.040;2023-09-19T07:20:27;3.95;;;0.85;;
74042;SDS011;62384;53.600;10.040;2023-09-19T07:22:58;5.70;;;1.50;;
74042;SDS011;62384;53.600;10.040;2023-09-19T07:25:41;5.68;;;1.40;;
74042;SDS011;62384;53.600;10.040;2023-09-19T07:28:07;6.50;;;1.77;;
74042;SDS011;62384;53.600;10.040;2023-09-19T07:30:38;6.05;;;1.42;;
74042;SDS011;62384;53.600;10.040;2023-09-19T07:33:10;7.57;;;1.23;;
74042;SDS011;62384;53.600;10.040;2023-09-19T07:35:37;8.93;;;1.67;;
74042;SDS011;62384;53.600;10.040;2023-09-19T07:38:11;7.40;;;1.17;;
74042;SDS011;62384;53.600;10.040;2023-09-19T07:40:41;6.68;;;1.38;;
74042;SDS011;62384;53.600;10.040;2023-09-19T07:43:07;6.85;;;1.38;;
74042;SDS011;62384;53.600;10.040;2023-09-19T07:45:34;4.88;;;1.25;;
74042;SDS011;62384;53.600;10.040;2023-09-19T07:47:59;7.07;;;1.20;;
74042;SDS011;62384;53.600;10.040;2023-09-19T07:50:30;5.72;;;1.35;;
74042;SDS011;62384;53.600;10.040;2023-09-19T07:52:55;5.32;;;1.27;;
74042;SDS011;62384;53.600;10.040;2023-09-19T07:55:21;6.25;;;2.17;;
74042;SDS011;62384;53.600;10.040;2023-09-19T07:57:52;6.22;;;1.52;;
74042;SDS011;62384;53.600;10.040;2023-09-19T08:00:29;6.10;;;1.85;;
74042;SDS011;62384;53.600;10.040;2023-09-19T08:02:55;9.10;;;2.33;;
74042;SDS011;62384;53.600;10.040;2023-09-19T08:05:22;3.67;;;1.80;;
74042;SDS011;62384;53.600;10.040;2023-09-19T08:07:48;9.68;;;2.33;;
74042;SDS011;62384;53.600;10.040;2023-09-19T08:10:15;7.47;;;2.33;;
74042;SDS011;62384;53.600;10.040;2023-09-19T08:12:44;8.55;;;1.80;;
74042;SDS011;62384;53.600;10.040;2023-09-19T08:17:42;11.30;;;2.33;;
74042;SDS011;62384;53.600;10.040;2023-09-19T08:20:08;9.98;;;2.25;;
74042;SDS011;62384;53.600;10.040;2023-09-19T08:22:48;10.18;;;2.10;;
74042;SDS011;62384;53.600;10.040;2023-09-19T08:25:15;7.28;;;1.92;;
74042;SDS011;62384;53.600;10.040;2023-09-19T08:27:44;12.02;;;2.42;;
74042;SDS011;62384;53.600;10.040;2023-09-19T08:30:17;8.82;;;2.38;;
74042;SDS011;62384;53.600;10.040;2023-09-19T08:32:45;5.57;;;2.03;;
74042;SDS011;62384;53.600;10.040;2023-09-19T08:35:13;6.70;;;2.17;;
74042;SDS011;62384;53.600;10.040;2023-09-19T08:37:39;11.25;;;1.98;;
74042;SDS011;62384;53.600;10.040;2023-09-19T08:40:04;6.28;;;2.10;;
74042;SDS011;62384;53.600;10.040;2023-09-19T08:43:07;3.88;;;2.45;;
74042;SDS011;62384;53.600;10.040;2023-09-19T08:45:25;8.07;;;1.75;;
74042;SDS011;62384;53.600;10.040;2023-09-19T08:51:02;11.23;;;1.67;;
74042;SDS011;62384;53.600;10.040;2023-09-19T08:54:47;8.10;;;1.85;;
74042;SDS011;62384;53.600;10.040;2023-09-19T08:56:47;7.03;;;1.75;;
74042;SDS011;62384;53.600;10.040;2023-09-19T08:59:13;6.30;;;1.60;;
74042;SDS011;62384;53.600;10.040;2023-09-19T09:01:39;12.50;;;2.53;;
74042;SDS011;62384;53.600;10.040;2023-09-19T09:04:07;7.75;;;3.15;;
74042;SDS011;62384;53.600;10.040;2023-09-19T09:06:34;10.52;;;2.20;;
74042;SDS011;62384;53.600;10.040;2023-09-19T09:09:01;9.32;;;1.98;;
74042;SDS011;62384;53.600;10.040;2023-09-19T09:11:26;9.82;;;1.85;;
74042;SDS011;62384;53.600;10.040;2023-09-19T09:13:53;10.00;;;2.35;;
74042;SDS011;62384;53.600;10.040;2023-09-19T09:16:18;6.60;;;2.53;;
74042;SDS011;62384;53.600;10.040;2023-09-19T09:18:44;9.85;;;2.38;;
74042;SDS011;62384;53.600;10.040;2023-09-19T09:21:10;7.72;;;1.80;;
74042;SDS011;62384;53.600;10.040;2023-09-19T09:23:36;6.22;;;2.03;;
74042;SDS011;62384;53.600;10.040;2023-09-19T09:26:01;9.52;;;2.15;;
74042;SDS011;62384;53.600;10.040;2023-09-19T09:28:31;2.15;;;1.30;;
74042;SDS011;62384;53.600;10.040;2023-09-19T09:30:59;9.60;;;1.63;;
74042;SDS011;62384;53.600;10.040;2023-09-19T09:33:35;12.55;;;2.03;;
74042;SDS011;62384;53.600;10.040;2023-09-19T09:36:01;2.63;;;1.38;;
74042;SDS011;62384;53.600;10.040;2023-09-19T09:38:47;7.97;;;2.00;;
74042;SDS011;62384;53.600;10.040;2023-09-19T09:41:13;9.63;;;2.17;;
74042;SDS011;62384;53.600;10.040;2023-09-19T09:43:52;5.10;;;1.65;;
74042;SDS011;62384;53.600;10.040;2023-09-19T09:46:18;4.03;;;1.33;;
74042;SDS011;62384;53.600;10.040;2023-09-19T09:51:49;3.45;;;1.13;;
74042;SDS011;62384;53.600;10.040;2023-09-19T09:57:33;5.60;;;1.13;;
74042;SDS011;62384;53.600;10.040;2023-09-19T10:00:06;11.68;;;1.38;;
74042;SDS011;62384;53.600;10.040;2023-09-19T10:02:37;7.13;;;0.90;;
74042;SDS011;62384;53.600;10.040;2023-09-19T10:05:12;3.88;;;0.98;;
74042;SDS011;62384;53.600;10.040;2023-09-19T10:07:49;7.82;;;1.23;;
74042;SDS011;62384;53.600;10.040;2023-09-19T10:10:49;7.32;;;1.13;;
74042;SDS011;62384;53.600;10.040;2023-09-19T10:13:17;5.03;;;1.10;;
74042;SDS011;62384;53.600;10.040;2023-09-19T10:15:50;3.03;;;1.00;;
74042;SDS011;62384;53.600;10.040;2023-09-19T10:18:26;4.65;;;1.25;;
74042;SDS011;62384;53.600;10.040;2023-09-19T10:20:54;7.10;;;1.00;;
74042;SDS011;62384;53.600;10.040;2023-09-19T10:23:21;5.38;;;1.27;;
74042;SDS011;62384;53.600;10.040;2023-09-19T10:25:49;4.60;;;0.95;;
74042;SDS011;62384;53.600;10.040;2023-09-19T10:28:18;2.90;;;0.82;;
74042;SDS011;62384;53.600;10.040;2023-09-19T10:30:58;3.90;;;1.20;;
74042;SDS011;62384;53.600;10.040;2023-09-19T10:33:25;6.45;;;0.80;;
74042;SDS011;62384;53.600;10.040;2023-09-19T10:35:51;3.97;;;0.88;;
74042;SDS011;62384;53.600;10.040;2023-09-19T10:38:24;1.75;;;0.73;;
74042;SDS011;62384;53.600;10.040;2023-09-19T10:40:54;2.42;;;0.82;;
74042;SDS011;62384;53.600;10.040;2023-09-19T10:43:31;4.35;;;1.00;;
74042;SDS011;62384;53.600;10.040;2023-09-19T10:46:00;3.92;;;1.50;;
74042;SDS011;62384;53.600;10.040;2023-09-19T10:50:58;6.93;;;1.10;;
74042;SDS011;62384;53.600;10.040;2023-09-19T10:53:29;4.57;;;0.90;;
74042;SDS011;62384;53.600;10.040;2023-09-19T10:56:07;5.03;;;1.33;;
74042;SDS011;62384;53.600;10.040;2023-09-19T10:58:39;5.07;;;1.00;;
74042;SDS011;62384;53.600;10.040;2023-09-19T11:01:07;9.85;;;1.42;;
74042;SDS011;62384;53.600;10.040;2023-09-19T11:03:37;2.95;;;0.60;;
74042;SDS011;62384;53.600;10.040;2023-09-19T11:06:16;2.80;;;0.70;;
74042;SDS011;62384;53.600;10.040;2023-09-19T11:08:56;7.28;;;0.98;;
74042;SDS011;62384;53.600;10.040;2023-09-19T11:25:42;3.50;;;0.85;;
74042;SDS011;62384;53.600;10.040;2023-09-19T11:30:51;5.40;;;0.73;;
74042;SDS011;62384;53.600;10.040;2023-09-19T11:33:19;4.45;;;1.15;;
74042;SDS011;62384;53.600;10.040;2023-09-19T11:36:09;3.85;;;1.13;;
74042;SDS011;62384;53.600;10.040;2023-09-19T11:46:16;4.65;;;0.80;;
74042;SDS011;62384;53.600;10.040;2023-09-19T11:48:47;5.95;;;1.02;;
74042;SDS011;62384;53.600;10.040;2023-09-19T11:51:19;4.22;;;0.73;;
74042;SDS011;62384;53.600;10.040;2023-09-19T11:53:57;6.43;;;1.33;;
74042;SDS011;62384;53.600;10.040;2023-09-19T11:56:28;4.13;;;0.75;;
74042;SDS011;62384;53.600;10.040;2023-09-19T11:59:00;3.13;;;1.00;;
74042;SDS011;62384;53.600;10.040;2023-09-19T12:01:34;9.43;;;0.90;;
74042;SDS011;62384;53.600;10.040;2023-09-19T12:04:09;4.28;;;1.13;;
74042;SDS011;62384;53.600;10.040;2023-09-19T12:06:36;6.95;;;0.95;;
74042;SDS011;62384;53.600;10.040;2023-09-19T12:09:03;3.50;;;0.90;;
74042;SDS011;62384;53.600;10.040;2023-09-19T12:11:32;4.60;;;0.88;;
74042;SDS011;62384;53.600;10.040;2023-09-19T12:13:58;3.88;;;1.02;;
74042;SDS011;62384;53.600;10.040;2023-09-19T12:19:55;6.93;;;1.10;;
74042;SDS011;62384;53.600;10.040;2023-09-19T12:22:21;9.25;;;1.27;;
74042;SDS011;62384;53.600;10.040;2023-09-19T12:24:47;3.25;;;1.02;;
74042;SDS011;62384;53.600;10.040;2023-09-19T12:27:22;8.60;;;1.38;;
74042;SDS011;62384;53.600;10.040;2023-09-19T12:29:47;9.70;;;1.45;;
74042;SDS011;62384;53.600;10.040;2023-09-19T12:32:16;6.15;;;1.25;;
74042;SDS011;62384;53.600;10.040;2023-09-19T12:38:06;7.43;;;1.15;;
74042;SDS011;62384;53.600;10.040;2023-09-19T12:40:35;5.90;;;1.25;;
74042;SDS011;62384;53.600;10.040;2023-09-19T12:43:03;4.13;;;1.10;;
74042;SDS011;62384;53.600;10.040;2023-09-19T12:49:14;13.60;;;1.45;;
74042;SDS011;62384;53.600;10.040;2023-09-19T12:51:42;3.38;;;1.13;;
74042;SDS011;62384;53.600;10.040;2023-09-19T12:54:08;5.38;;;1.23;;
74042;SDS011;62384;53.600;10.040;2023-09-19T12:56:41;3.72;;;1.30;;
74042;SDS011;62384;53.600;10.040;2023-09-19T12:59:14;6.18;;;1.45;;
74042;SDS011;62384;53.600;10.040;2023-09-19T13:01:40;5.15;;;1.50;;
74042;SDS011;62384;53.600;10.040;2023-09-19T13:04:21;5.28;;;1.35;;
74042;SDS011;62384;53.600;10.040;2023-09-19T13:07:00;8.48;;;1.63;;
74042;SDS011;62384;53.600;10.040;2023-09-19T13:09:26;6.95;;;1.20;;
74042;SDS011;62384;53.600;10.040;2023-09-19T13:15:14;4.82;;;1.20;;
74042;SDS011;62384;53.600;10.040;2023-09-19T13:17:48;3.60;;;1.13;;
74042;SDS011;62384;53.600;10.040;2023-09-19T13:20:24;3.55;;;1.00;;
74042;SDS011;62384;53.600;10.040;2023-09-19T13:22:56;7.57;;;1.27;;
74042;SDS011;62384;53.600;10.040;2023-09-19T13:25:25;1.98;;;0.55;;
74042;SDS011;62384;53.600;10.040;2023-09-19T13:27:57;5.53;;;1.20;;
74042;SDS011;62384;53.600;10.040;2023-09-19T13:30:28;7.50;;;1.45;;
74042;SDS011;62384;53.600;10.040;2023-09-19T13:33:11;4.10;;;1.08;;
74042;SDS011;62384;53.600;10.040;2023-09-19T13:35:38;8.20;;;1.13;;
74042;SDS011;62384;53.600;10.040;2023-09-19T13:38:05;6.47;;;1.52;;
74042;SDS011;62384;53.600;10.040;2023-09-19T13:40:31;3.60;;;1.30;;
74042;SDS011;62384;53.600;10.040;2023-09-19T13:42:59;4.13;;;0.95;;
74042;SDS011;62384;53.600;10.040;2023-09-19T13:45:25;5.82;;;1.23;;
74042;SDS011;62384;53.600;10.040;2023-09-19T13:47:55;5.40;;;1.10;;
74042;SDS011;62384;53.600;10.040;2023-09-19T13:50:21;4.50;;;1.08;;
74042;SDS011;62384;53.600;10.040;2023-09-19T13:52:49;5.28;;;1.08;;
74042;SDS011;62384;53.600;10.040;2023-09-19T13:55:16;2.30;;;0.68;;
74042;SDS011;62384;53.600;10.040;2023-09-19T13:57:50;5.05;;;0.90;;
74042;SDS011;62384;53.600;10.040;2023-09-19T14:00:17;5.07;;;1.00;;
74042;SDS011;62384;53.600;10.040;2023-09-19T14:02:43;4.10;;;1.42;;
74042;SDS011;62384;53.600;10.040;2023-09-19T14:05:11;3.28;;;0.88;;
74042;SDS011;62384;53.600;10.040;2023-09-19T14:07:39;1.67;;;1.00;;
74042;SDS011;62384;53.600;10.040;2023-09-19T14:10:06;223.02;;;131.07;;
74042;SDS011;62384;53.600;10.040;2023-09-19T14:12:35;3.10;;;0.60;;
74042;SDS011;62384;53.600;10.040;2023-09-19T14:15:01;170.57;;;106.75;;
74042;SDS011;62384;53.600;10.040;2023-09-19T14:17:27;5.82;;;1.10;;
74042;SDS011;62384;53.600;10.040;2023-09-19T14:19:58;3.40;;;1.17;;
74042;SDS011;62384;53.600;10.040;2023-09-19T14:22:28;3.30;;;1.10;;
74042;SDS011;62384;53.600;10.040;2023-09-19T14:24:53;4.63;;;0.98;;
74042;SDS011;62384;53.600;10.040;2023-09-19T14:27:19;3.08;;;0.88;;
74042;SDS011;62384;53.600;10.040;2023-09-19T14:29:48;6.00;;;1.10;;
74042;SDS011;62384;53.600;10.040;2023-09-19T14:32:16;3.75;;;1.20;;
74042;SDS011;62384;53.600;10.040;2023-09-19T14:34:41;5.40;;;1.20;;
74042;SDS011;62384;53.600;10.040;2023-09-19T14:37:10;3.63;;;0.80;;
74042;SDS011;62384;53.600;10.040;2023-09-19T14:39:36;7.45;;;0.85;;
74042;SDS011;62384;53.600;10.040;2023-09-19T14:42:08;6.35;;;0.90;;
74042;SDS011;62384;53.600;10.040;2023-09-19T14:44:36;4.95;;;1.15;;
74042;SDS011;62384;53.600;10.040;2023-09-19T14:47:05;8.63;;;1.07;;
74042;SDS011;62384;53.600;10.040;2023-09-19T14:49:35;5.43;;;1.08;;
74042;SDS011;62384;53.600;10.040;2023-09-19T14:52:03;8.27;;;0.90;;
74042;SDS011;62384;53.600;10.040;2023-09-19T14:54:29;5.25;;;0.75;;
74042;SDS011;62384;53.600;10.040;2023-09-19T14:56:55;7.63;;;1.30;;
74042;SDS011;62384;53.600;10.040;2023-09-19T14:59:29;5.65;;;1.10;;
74042;SDS011;62384;53.600;10.040;2023-09-19T15:01:56;4.07;;;1.10;;
74042;SDS011;62384;53.600;10.040;2023-09-19T15:04:21;2.17;;;1.08;;
74042;SDS011;62384;53.600;10.040;2023-09-19T15:06:47;1.77;;;0.85;;
74042;SDS011;62384;53.600;10.040;2023-09-19T15:09:13;11.85;;;1.40;;
74042;SDS011;62384;53.600;10.040;2023-09-19T15:11:39;10.35;;;2.28;;
74042;SDS011;62384;53.600;10.040;2023-09-19T15:14:09;11.10;;;2.75;;
74042;SDS011;62384;53.600;10.040;2023-09-19T15:16:34;14.93;;;3.30;;
74042;SDS011;62384;53.600;10.040;2023-09-19T15:19:00;16.95;;;4.28;;
74042;SDS011;62384;53.600;10.040;2023-09-19T15:21:29;14.85;;;3.85;;
74042;SDS011;62384;53.600;10.040;2023-09-19T15:23:59;17.35;;;4.90;;
74042;SDS011;62384;53.600;10.040;2023-09-19T15:26:24;15.00;;;6.47;;
74042;SDS011;62384;53.600;10.040;2023-09-19T15:28:50;47.72;;;36.88;;
74042;SDS011;62384;53.600;10.040;2023-09-19T15:31:16;50.90;;;44.50;;
74042;SDS011;62384;53.600;10.040;2023-09-19T15:33:41;72.45;;;64.93;;
74042;SDS011;62384;53.600;10.040;2023-09-19T15:36:13;89.32;;;79.68;;
74042;SDS011;62384;53.600;10.040;2023-09-19T15:38:58;68.60;;;59.83;;
74042;SDS011;62384;53.600;10.040;2023-09-19T15:41:33;153.48;;;126.95;;
74042;SDS011;62384;53.600;10.040;2023-09-19T15:44:03;163.85;;;130.15;;
74042;SDS011;62384;53.600;10.040;2023-09-19T15:46:30;156.90;;;128.65;;